createdAt,value
2018-11-14T00:01:44.991Z,50.40
2018-11-14T00:04:38.549Z,50.50
2018-11-14T00:07:32.119Z,50.50
2018-11-14T00:10:31.729Z,50.70
2018-11-14T00:13:26.832Z,50.50
2018-11-14T00:16:20.500Z,50.50
2018-11-14T00:19:23.750Z,50.40
2018-11-14T00:22:08.263Z,50.40
2018-11-14T00:25:03.958Z,50.50
2018-11-14T00:27:59.520Z,50.50
2018-11-14T00:30:53.573Z,50.50
2018-11-14T00:33:48.861Z,50.40
2018-11-14T00:36:42.760Z,50.40
2018-11-14T00:39:37.355Z,50.40
2018-11-14T00:42:31.335Z,50.40
2018-11-14T00:45:25.618Z,50.40
2018-11-14T00:48:27.379Z,50.30
2018-11-14T00:51:21.464Z,50.40
2018-11-14T00:54:15.636Z,50.50
2018-11-14T00:57:12.903Z,50.70
2018-11-14T01:00:07.136Z,50.80
2018-11-14T01:03:03.008Z,50.80
2018-11-14T01:05:56.787Z,50.80
2018-11-14T01:08:50.455Z,51.00
2018-11-14T01:11:44.742Z,50.90
2018-11-14T01:14:38.514Z,50.80
2018-11-14T01:17:34.986Z,50.80
2018-11-14T01:20:28.528Z,50.80
2018-11-14T01:23:22.094Z,50.90
2018-11-14T01:26:15.604Z,50.70
2018-11-14T01:29:09.432Z,50.70
2018-11-14T01:32:03.413Z,50.70
2018-11-14T01:34:57.904Z,50.70
2018-11-14T01:37:51.988Z,50.70
2018-11-14T01:40:45.861Z,50.80
2018-11-14T01:43:42.920Z,51.00
2018-11-14T01:46:38.607Z,51.10
2018-11-14T01:49:34.142Z,51.20
2018-11-14T01:52:28.123Z,51.30
2018-11-14T01:55:22.843Z,51.40
2018-11-14T01:58:18.234Z,51.30
2018-11-14T02:01:12.310Z,51.40
2018-11-14T02:04:06.393Z,51.40
2018-11-14T02:07:00.269Z,51.40
2018-11-14T02:09:54.575Z,51.30
2018-11-14T02:12:48.462Z,51.60
2018-11-14T02:15:42.105Z,51.60
2018-11-14T02:18:35.568Z,51.60
2018-11-14T02:21:29.135Z,51.60
2018-11-14T02:24:23.117Z,51.70
2018-11-14T02:27:19.245Z,51.70
2018-11-14T02:30:21.853Z,51.80
2018-11-14T02:33:15.535Z,51.80
2018-11-14T02:36:09.266Z,51.70
2018-11-14T02:39:04.277Z,51.70
2018-11-14T02:41:58.359Z,51.80
2018-11-14T02:44:54.077Z,51.80
2018-11-14T02:47:48.056Z,51.80
2018-11-14T02:50:44.628Z,51.80
2018-11-14T02:53:38.269Z,51.80
2018-11-14T02:56:32.144Z,51.70
2018-11-14T02:59:28.069Z,51.40
2018-11-14T03:02:21.956Z,51.00
2018-11-14T03:05:17.565Z,50.80
2018-11-14T03:08:11.537Z,50.60
2018-11-14T03:11:05.013Z,50.30
2018-11-14T03:13:58.587Z,50.30
2018-11-14T03:16:52.456Z,50.00
2018-11-14T03:19:46.539Z,49.50
2018-11-14T03:22:42.027Z,49.00
2018-11-14T03:25:35.603Z,48.70
2018-11-14T03:31:22.970Z,48.70
2018-11-14T03:34:16.329Z,48.70
2018-11-14T03:37:09.891Z,48.40
2018-11-14T03:40:04.793Z,49.00
2018-11-14T03:43:00.000Z,48.40
2018-11-14T03:45:53.883Z,48.50
2018-11-14T03:48:49.497Z,48.50
2018-11-14T03:51:43.577Z,48.40
2018-11-14T03:54:37.553Z,48.50
2018-11-14T03:57:31.742Z,47.90
2018-11-14T04:00:25.616Z,47.90
2018-11-14T04:03:22.361Z,47.90
2018-11-14T04:06:16.133Z,48.20
2018-11-14T04:09:15.506Z,48.60
2018-11-14T04:12:09.321Z,48.60
2018-11-14T04:15:02.882Z,48.30
2018-11-14T04:17:56.552Z,48.20
2018-11-14T04:20:50.445Z,48.20
2018-11-14T04:23:50.659Z,48.10
2018-11-14T04:26:45.148Z,48.00
2018-11-14T04:29:41.073Z,48.20
2018-11-14T04:32:35.337Z,48.10
2018-11-14T04:35:29.133Z,48.10
2018-11-14T04:38:22.616Z,48.40
2018-11-14T04:41:17.294Z,48.70
2018-11-14T04:44:12.101Z,48.50
2018-11-14T04:47:07.300Z,48.50
2018-11-14T04:50:08.499Z,48.40
2018-11-14T04:53:10.571Z,48.30
2018-11-14T04:56:18.114Z,48.30
2018-11-14T04:59:12.390Z,48.30
2018-11-14T05:02:15.073Z,48.40
2018-11-14T05:05:14.257Z,48.70
2018-11-14T05:08:14.881Z,48.70
2018-11-14T05:11:21.202Z,49.00
2018-11-14T05:18:53.118Z,48.40
2018-11-14T05:25:05.029Z,48.50
2018-11-14T05:28:05.897Z,48.10
2018-11-14T05:31:07.091Z,47.90
2018-11-14T05:34:07.015Z,47.70
2018-11-14T05:37:04.757Z,47.60
2018-11-14T05:40:05.729Z,47.70
2018-11-14T05:43:02.752Z,47.40
2018-11-14T05:46:04.252Z,47.40
2018-11-14T05:49:06.599Z,46.90
2018-11-14T05:52:02.514Z,46.80
2018-11-14T05:54:58.941Z,47.00
2018-11-14T05:58:00.316Z,47.30
2018-11-14T06:01:55.695Z,47.30
2018-11-14T06:04:55.947Z,46.90
2018-11-14T06:07:52.393Z,46.80
2018-11-14T06:10:48.716Z,46.50
2018-11-14T06:13:49.215Z,46.60
2018-11-14T06:16:50.372Z,45.90
2018-11-14T06:19:46.128Z,46.20
2018-11-14T06:22:43.686Z,46.40
2018-11-14T06:25:42.225Z,46.40
2018-11-14T06:28:39.287Z,46.60
2018-11-14T06:31:35.036Z,46.70
2018-11-14T06:34:34.651Z,46.50
2018-11-14T06:37:42.068Z,46.80
2018-11-14T06:40:35.682Z,46.90
2018-11-14T06:43:54.905Z,46.60
2018-11-14T06:46:55.717Z,46.40
2018-11-14T06:49:53.105Z,46.30
2018-11-14T06:52:50.177Z,45.70
2018-11-14T06:55:53.388Z,45.60
2018-11-14T06:59:18.947Z,45.00
2018-11-14T07:02:14.630Z,45.00
2018-11-14T07:09:10.391Z,44.90
2018-11-14T07:12:45.814Z,44.70
2018-11-14T07:15:41.545Z,44.60
2018-11-14T07:18:42.460Z,44.20
2018-11-14T07:22:01.819Z,43.80
2018-11-14T07:32:11.596Z,42.50
2018-11-14T07:35:10.793Z,42.30
2018-11-14T07:38:48.272Z,42.60
2018-11-14T07:41:56.421Z,43.10
2018-11-14T07:45:06.089Z,42.90
2018-11-14T07:48:22.882Z,42.60
2018-11-14T07:51:21.998Z,42.90
2018-11-14T07:54:18.731Z,42.60
2018-11-14T07:57:15.608Z,42.50
2018-11-14T08:00:19.655Z,42.90
2018-11-14T08:03:14.053Z,43.20
2018-11-14T08:06:08.481Z,42.70
2018-11-14T08:09:06.242Z,42.30
2018-11-14T08:12:00.945Z,42.20
2018-11-14T08:14:56.730Z,42.40
2018-11-14T08:17:55.148Z,42.10
2018-11-14T08:20:53.060Z,41.60
2018-11-14T08:23:47.933Z,41.20
2018-11-14T08:26:49.083Z,41.30
2018-11-14T08:29:40.877Z,40.80
2018-11-14T08:32:50.609Z,40.70
2018-11-14T08:35:37.878Z,41.10
2018-11-14T08:38:33.918Z,40.60
2018-11-14T08:41:30.758Z,40.00
2018-11-14T08:45:26.698Z,39.70
2018-11-14T08:48:18.860Z,39.40
2018-11-14T08:51:14.708Z,39.50
2018-11-14T08:54:09.480Z,39.10
2018-11-14T08:57:12.112Z,39.50
2018-11-14T09:00:04.155Z,38.50
2018-11-14T09:03:30.784Z,38.30
2018-11-14T09:06:29.555Z,38.60
2018-11-14T09:09:31.913Z,39.20
2018-11-14T09:12:32.857Z,39.40
2018-11-14T09:15:34.498Z,39.40
2018-11-14T09:18:36.961Z,39.20
2018-11-14T09:21:42.006Z,39.30
2018-11-14T09:24:47.827Z,39.50
2018-11-14T09:27:59.618Z,39.50
2018-11-14T09:31:01.337Z,39.60
2018-11-14T09:34:01.695Z,39.60
2018-11-14T09:37:03.348Z,39.50
2018-11-14T09:39:59.846Z,39.60
2018-11-14T09:42:59.674Z,39.60
2018-11-14T09:45:56.529Z,39.60
2018-11-14T09:48:52.910Z,39.20
2018-11-14T09:51:55.101Z,39.40
2018-11-14T09:54:50.938Z,39.60
2018-11-14T09:57:52.543Z,39.90
2018-11-14T10:01:29.371Z,40.30
2018-11-14T10:04:19.488Z,40.50
2018-11-14T10:08:19.923Z,40.30
2018-11-14T10:11:04.828Z,39.90
2018-11-14T10:14:06.100Z,39.90
2018-11-14T10:17:07.084Z,40.20
2018-11-14T10:20:03.513Z,40.10
2018-11-14T10:23:03.396Z,39.70
2018-11-14T10:25:55.055Z,39.40
2018-11-14T10:28:52.690Z,39.00
2018-11-14T10:31:50.710Z,38.30
2018-11-14T10:34:52.678Z,38.70
2018-11-14T10:37:51.852Z,39.00
2018-11-14T10:40:51.543Z,39.40
2018-11-14T10:43:51.858Z,39.60
2018-11-14T10:46:52.409Z,39.60
2018-11-14T10:49:53.975Z,39.90
2018-11-14T10:52:50.707Z,40.60
2018-11-14T10:55:51.339Z,41.00
2018-11-14T11:02:46.767Z,40.70
2018-11-14T11:05:58.993Z,40.50
2018-11-14T11:09:14.267Z,40.70
2018-11-14T11:12:34.972Z,40.90
2018-11-14T11:15:48.675Z,41.00
2018-11-14T11:18:47.435Z,41.10
2018-11-14T11:21:46.343Z,41.30
2018-11-14T11:24:46.755Z,41.50
2018-11-14T11:27:44.855Z,41.40
2018-11-14T11:30:45.232Z,41.50
2018-11-14T11:33:39.271Z,41.30
2018-11-14T11:36:33.458Z,41.10
2018-11-14T11:39:31.930Z,40.80
2018-11-14T11:42:29.528Z,40.70
2018-11-14T11:45:26.842Z,40.70
2018-11-14T11:48:24.847Z,40.80
2018-11-14T11:51:21.658Z,40.90
2018-11-14T11:54:16.048Z,41.20
2018-11-14T11:57:14.517Z,41.30
2018-11-14T12:00:16.220Z,41.30
2018-11-14T12:03:21.733Z,41.40
2018-11-14T12:06:19.500Z,41.60
2018-11-14T12:09:15.322Z,41.80
2018-11-14T12:12:13.352Z,41.80
2018-11-14T12:15:14.502Z,41.80
2018-11-14T12:18:11.496Z,42.20
2018-11-14T12:21:15.327Z,42.40
2018-11-14T12:24:15.277Z,42.70
2018-11-14T12:27:20.163Z,42.50
2018-11-14T12:30:22.224Z,42.50
2018-11-14T12:33:17.641Z,42.80
2018-11-14T12:36:16.384Z,42.90
2018-11-14T12:39:13.895Z,43.00
2018-11-14T12:42:11.991Z,43.10
2018-11-14T12:45:09.327Z,43.30
2018-11-14T12:48:07.861Z,43.40
2018-11-14T12:51:12.905Z,43.30
2018-11-14T12:54:13.295Z,43.40
2018-11-14T12:57:09.393Z,43.40
2018-11-14T13:00:11.966Z,43.30
2018-11-14T13:03:08.308Z,43.30
2018-11-14T13:06:02.509Z,43.20
2018-11-14T13:08:56.103Z,43.20
2018-11-14T13:11:52.307Z,43.30
2018-11-14T13:14:46.278Z,43.40
2018-11-14T13:17:41.802Z,43.50
2018-11-14T13:20:46.020Z,43.40
2018-11-14T13:23:40.102Z,43.30
2018-11-14T13:26:33.876Z,43.60
2018-11-14T13:29:28.982Z,43.70
2018-11-14T13:32:22.595Z,44.00
2018-11-14T13:35:17.388Z,44.20
2018-11-14T13:38:11.530Z,44.30
2018-11-14T13:41:07.160Z,44.30
2018-11-14T13:44:04.412Z,44.30
2018-11-14T13:46:58.494Z,44.20
2018-11-14T13:49:53.692Z,44.20
2018-11-14T13:52:47.373Z,44.10
2018-11-14T13:55:41.652Z,44.10
2018-11-14T13:58:35.527Z,44.10
2018-11-14T14:01:32.066Z,44.00
2018-11-14T14:04:23.891Z,44.00
2018-11-14T14:07:18.252Z,44.00
2018-11-14T14:10:14.319Z,44.10
2018-11-14T14:13:13.464Z,44.00
2018-11-14T14:16:07.551Z,44.10
2018-11-14T14:19:01.573Z,44.20
2018-11-14T14:21:55.074Z,44.10
2018-11-14T14:24:48.910Z,44.00
2018-11-14T14:27:42.582Z,43.90
2018-11-14T14:30:36.570Z,44.00
2018-11-14T14:33:30.111Z,44.20
2018-11-14T14:36:24.107Z,43.60
2018-11-14T14:39:17.992Z,44.30
2018-11-14T14:42:11.862Z,44.30
2018-11-14T14:45:05.845Z,43.90
2018-11-14T14:48:01.671Z,43.80
2018-11-14T14:50:57.288Z,44.40
2018-11-14T14:53:52.899Z,44.40
2018-11-14T14:56:48.556Z,44.40
2018-11-14T14:59:42.492Z,44.30
2018-11-14T15:02:36.472Z,44.30
2018-11-14T15:05:30.143Z,44.20
2018-11-14T15:08:25.573Z,44.30
2018-11-14T15:11:19.537Z,44.40
2018-11-14T15:14:13.576Z,44.50
2018-11-14T15:17:07.887Z,44.50
2018-11-14T15:20:01.781Z,44.40
2018-11-14T15:22:56.090Z,44.40
2018-11-14T15:25:51.783Z,44.30
2018-11-14T15:28:45.983Z,44.30
2018-11-14T15:31:40.356Z,44.20
2018-11-14T15:34:34.333Z,44.20
2018-11-14T15:37:28.543Z,44.30
2018-11-14T15:40:23.706Z,44.40
2018-11-14T15:43:20.367Z,44.40
2018-11-14T15:46:14.313Z,44.40
2018-11-14T15:49:08.013Z,44.50
2018-11-14T15:52:02.007Z,44.60
2018-11-14T15:55:01.281Z,44.70
2018-11-14T15:57:52.533Z,44.80
2018-11-14T16:00:46.398Z,44.80
2018-11-14T16:03:40.582Z,44.90
2018-11-14T16:06:34.107Z,45.00
2018-11-14T16:09:30.170Z,45.10
2018-11-14T16:12:23.902Z,45.20
2018-11-14T16:15:18.574Z,45.20
2018-11-14T16:18:13.007Z,45.10
2018-11-14T16:21:06.420Z,45.10
2018-11-14T16:24:00.570Z,45.20
2018-11-14T16:26:54.251Z,45.30
2018-11-14T16:29:50.079Z,45.40
2018-11-14T16:32:44.587Z,45.50
2018-11-14T16:35:38.379Z,45.50
2018-11-14T16:38:33.130Z,45.40
2018-11-14T16:41:27.323Z,45.40
2018-11-14T16:44:21.194Z,45.40
2018-11-14T16:47:14.760Z,45.50
2018-11-14T16:50:08.675Z,45.50
2018-11-14T16:53:02.583Z,45.40
2018-11-14T16:55:57.005Z,45.50
2018-11-14T16:58:52.622Z,45.50
2018-11-14T17:01:46.808Z,45.70
2018-11-14T17:04:42.098Z,45.70
2018-11-14T17:07:36.299Z,45.70
2018-11-14T17:10:30.687Z,45.70
2018-11-14T17:13:24.976Z,45.70
2018-11-14T17:16:21.716Z,45.80
2018-11-14T17:19:19.178Z,45.90
2018-11-14T17:22:12.876Z,46.00
2018-11-14T17:25:08.263Z,46.00
2018-11-14T17:28:03.061Z,46.10
2018-11-14T17:30:57.353Z,46.20
2018-11-14T17:33:51.220Z,46.20
2018-11-14T17:36:48.170Z,46.30
2018-11-14T17:39:42.456Z,46.30
2018-11-14T17:42:36.157Z,46.40
2018-11-14T17:45:31.845Z,46.50
2018-11-14T17:48:27.158Z,46.60
2018-11-14T17:51:20.942Z,46.60
2018-11-14T17:54:14.708Z,46.50
2018-11-14T17:57:08.580Z,47.20
2018-11-14T18:00:01.921Z,46.60
2018-11-14T18:02:55.432Z,46.60
2018-11-14T18:05:49.184Z,46.70
2018-11-14T18:08:44.289Z,46.80
2018-11-14T18:11:39.396Z,46.80
2018-11-14T18:14:33.416Z,46.80
2018-11-14T18:17:26.994Z,46.90
2018-11-14T18:20:22.105Z,46.80
2018-11-14T18:23:15.841Z,46.90
2018-11-14T18:26:09.809Z,47.10
2018-11-14T18:29:03.457Z,47.90
2018-11-14T18:31:59.918Z,47.40
2018-11-14T18:34:54.401Z,47.40
2018-11-14T18:37:48.669Z,47.50
2018-11-14T18:40:44.977Z,47.60
2018-11-14T18:43:39.000Z,47.60
2018-11-14T18:46:35.861Z,47.50
2018-11-14T18:49:31.983Z,47.60
2018-11-14T18:52:31.495Z,47.60
2018-11-14T18:55:23.003Z,47.70
2018-11-14T18:58:16.432Z,47.70
2018-11-14T19:01:10.041Z,47.70
2018-11-14T19:04:04.531Z,47.70
2018-11-14T19:06:58.283Z,47.70
2018-11-14T19:09:51.671Z,47.90
2018-11-14T19:12:46.138Z,48.00
2018-11-14T19:15:41.368Z,48.00
2018-11-14T19:18:41.324Z,48.10
2018-11-14T19:21:34.852Z,48.30
2018-11-14T19:24:28.661Z,48.20
2018-11-14T19:27:24.351Z,48.20
2018-11-14T19:30:22.351Z,48.30
2018-11-14T19:33:15.791Z,48.40
2018-11-14T19:36:14.210Z,48.50
2018-11-14T19:39:10.299Z,48.40
2018-11-14T19:42:04.381Z,48.50
2018-11-14T19:44:58.358Z,48.70
2018-11-14T19:47:51.640Z,48.70
2018-11-14T19:50:45.710Z,48.80
2018-11-14T19:53:39.619Z,48.90
2018-11-14T19:56:33.455Z,49.00
2018-11-14T19:59:27.747Z,49.10
2018-11-14T20:02:21.234Z,49.20
2018-11-14T20:05:16.722Z,49.30
2018-11-14T20:08:11.015Z,49.30
2018-11-14T20:11:04.993Z,49.40
2018-11-14T20:13:58.981Z,49.50
2018-11-14T20:16:52.239Z,49.50
2018-11-14T20:19:47.653Z,49.60
2018-11-14T20:22:41.728Z,49.70
2018-11-14T20:25:35.841Z,49.90
2018-11-14T20:28:30.190Z,50.10
2018-11-14T20:31:25.722Z,50.10
2018-11-14T20:34:19.514Z,50.30
2018-11-14T20:37:13.427Z,50.30
2018-11-14T20:40:07.141Z,50.30
2018-11-14T20:43:01.398Z,50.30
2018-11-14T20:45:55.023Z,50.30
2018-11-14T20:48:52.034Z,50.30
2018-11-14T20:51:46.014Z,50.30
2018-11-14T20:54:39.735Z,50.40
2018-11-14T20:57:33.256Z,50.30
2018-11-14T21:00:36.575Z,50.30
2018-11-14T21:03:34.421Z,50.40
2018-11-14T21:06:35.875Z,50.70
2018-11-14T21:09:29.794Z,50.50
2018-11-14T21:12:24.138Z,50.50
2018-11-14T21:15:20.571Z,51.20
2018-11-14T21:18:15.613Z,50.70
2018-11-14T21:21:12.322Z,50.80
2018-11-14T21:24:06.311Z,50.90
2018-11-14T21:27:00.181Z,51.10
2018-11-14T21:29:54.165Z,51.10
2018-11-14T21:32:48.033Z,51.20
2018-11-14T21:35:44.797Z,51.20
2018-11-14T21:38:38.338Z,51.40
2018-11-14T21:41:32.940Z,51.50
2018-11-14T21:44:26.915Z,51.60
2018-11-14T21:47:37.184Z,51.70
2018-11-14T21:50:31.878Z,51.80
2018-11-14T21:53:27.058Z,51.90
2018-11-14T21:56:21.367Z,52.10
2018-11-14T21:59:14.935Z,52.20
2018-11-14T22:02:10.261Z,52.30
2018-11-14T22:05:04.238Z,52.30
2018-11-14T22:07:58.005Z,52.40
2018-11-14T22:10:51.771Z,52.40
2018-11-14T22:13:45.549Z,52.50
2018-11-14T22:16:39.320Z,52.60
2018-11-14T22:19:32.874Z,52.70
2018-11-14T22:22:26.795Z,52.80
2018-11-14T22:25:27.270Z,53.00
2018-11-14T22:28:20.868Z,53.10
2018-11-14T22:31:16.900Z,53.00
2018-11-14T22:34:10.782Z,53.00
2018-11-14T22:37:06.283Z,53.00
2018-11-14T22:39:59.958Z,53.00
2018-11-14T22:42:54.860Z,53.00
2018-11-14T22:45:49.145Z,53.10
2018-11-14T22:48:42.637Z,53.10
2018-11-14T22:51:40.177Z,53.10
2018-11-14T22:54:33.751Z,53.00
2018-11-14T22:57:27.541Z,53.10
2018-11-14T23:00:50.102Z,53.30
2018-11-14T23:03:43.952Z,53.40
2018-11-14T23:06:37.628Z,53.30
2018-11-14T23:09:31.596Z,53.30
2018-11-14T23:12:25.583Z,53.50
2018-11-14T23:15:21.160Z,53.40
2018-11-14T23:18:15.683Z,53.50
2018-11-14T23:21:09.669Z,53.50
2018-11-14T23:24:04.457Z,53.50
2018-11-14T23:26:58.130Z,53.40
2018-11-14T23:29:52.214Z,53.50
2018-11-14T23:32:54.216Z,53.50
2018-11-14T23:35:48.063Z,53.60
2018-11-14T23:38:41.620Z,53.50
2018-11-14T23:41:35.600Z,53.60
2018-11-14T23:44:30.293Z,53.60
2018-11-14T23:47:24.376Z,53.60
2018-11-14T23:50:19.622Z,53.60
2018-11-14T23:53:16.736Z,53.60
2018-11-14T23:56:10.819Z,53.60
2018-11-14T23:59:04.795Z,53.60
